Thursday, June 21, 2018, 12:14 PM EDT
Back to Local

KMLT, Millinocket Municipal Airport

Location: Millinocket, ME, United States Lat: 45.65
Local Time: 12:14 PM EDT (16:14 GMT) Lon: -68.7
Time Zone: US/Eastern Elev: 406 ft

Show me the last for .
Show Decoded

2018-06-21 11:53 METAR KMLT 211553Z AUTO VRB05G15KT 10SM CLR 19/04 A2981 RMK AO2 SLP099 T01890039
                 =
2018-06-21 10:53 METAR KMLT 211453Z AUTO VRB05G18KT 10SM FEW050 18/03 A2981 RMK AO2 SLP100
                 T01830033 50003 =
2018-06-21 09:53 METAR KMLT 211353Z AUTO VRB04KT 10SM CLR 17/06 A2982 RMK AO2 SLP100 T01720056 =
2018-06-21 08:53 METAR KMLT 211253Z AUTO 36008KT 10SM CLR 16/04 A2981 RMK AO2 SLP097 T01610044 =
2018-06-21 07:53 METAR KMLT 211153Z AUTO 02007KT 10SM CLR 15/05 A2981 RMK AO2 SLP096 70007
                 T01500050 10167 20111 53019 =
2018-06-21 06:53 METAR KMLT 211053Z AUTO 02005KT 10SM CLR 14/06 A2979 RMK AO2 SLP089 T01390061 =
2018-06-21 05:53 METAR KMLT 210953Z AUTO 00000KT 10SM CLR 12/08 A2977 RMK AO2 SLP083 T01220083 =
2018-06-21 04:53 METAR KMLT 210853Z AUTO 00000KT 10SM CLR 12/08 A2975 RMK AO2 SLP077 T01220078
                 53014 =
2018-06-21 03:53 METAR KMLT 210753Z AUTO 01004KT 10SM CLR 14/09 A2973 RMK AO2 SLP068 T01390094 =
2018-06-21 02:53 METAR KMLT 210653Z AUTO 34004KT 10SM CLR 16/14 A2972 RMK AO2 SLP066 T01560139 =
2018-06-21 01:53 METAR KMLT 210553Z AUTO 31004KT 10SM BKN039 17/14 A2971 RMK AO2 SLP062 60007
                 T01670139 10244 20161 53007 =
2018-06-21 00:53 METAR KMLT 210453Z AUTO 31004KT 10SM OVC100 17/14 A2969 RMK AO2 SLP056 T01670144
                 402720117 =
2018-06-20 23:53 METAR KMLT 210353Z AUTO 00000KT 10SM CLR 17/15 A2969 RMK AO2 SLP056 T01720150 =
2018-06-20 22:53 METAR KMLT 210253Z AUTO 00000KT 10SM OVC095 17/15 A2969 RMK AO2 SLP055 60007
                 T01670150 50010 =
2018-06-20 21:53 METAR KMLT 210153Z AUTO 27003KT 10SM OVC090 17/15 A2969 RMK AO2 RAE24 SLP057
                 P0006 T01670150 =
2018-06-20 20:53 METAR KMLT 210053Z AUTO 31012G23KT 6SM RA FEW065 OVC085 17/13 A2970 RMK AO2 PK
                 WND 32026/2355 RAB47 SLP059 P0001 T01720133 =
2018-06-20 19:53 METAR KMLT 202353Z AUTO 32014G27KT 10SM SCT080 BKN100 OVC110 24/11 A2966 RMK AO2
                 PK WND 32027/2353 SLP045 T02440106 10272 20244 53003 =
2018-06-20 18:53 METAR KMLT 202253Z AUTO VRB06KT 10SM BKN080 26/11 A2963 RMK AO2 SLP038 T02560111
                 =
2018-06-20 17:53 METAR KMLT 202153Z AUTO 26005KT 10SM CLR 26/11 A2963 RMK AO2 SLP035 T02610106 =
2018-06-20 16:53 METAR KMLT 202053Z AUTO 27007KT 220V300 10SM FEW085 BKN110 27/11 A2965 RMK AO2
                 SLP042 T02670106 58010 =
2018-06-20 15:53 METAR KMLT 201953Z AUTO VRB04KT 10SM OVC080 26/10 A2967 RMK AO2 SLP049 T02560100
                 =
2018-06-20 14:53 METAR KMLT 201853Z AUTO 26009G16KT 10SM FEW080 27/09 A2967 RMK AO2 SLP050
                 T02720089 =
2018-06-20 13:53 METAR KMLT 201753Z AUTO 27008G15KT 10SM CLR 27/08 A2968 RMK AO2 SLP052 T02670083
                 10267 20178 58026 =
2018-06-20 12:53 METAR KMLT 201653Z AUTO 28009G16KT 230V310 10SM CLR 26/08 A2970 RMK AO2 SLP061
                 T02610083 =

Support USWX by starting your Amazon purchase here.